createdAt,value
2022-09-01T06:41:26.749Z,14.61
2022-09-01T06:46:29.662Z,14.86
2022-09-01T06:51:37.204Z,15.15
2022-09-01T06:56:45.044Z,15.42
2022-09-01T07:02:01.453Z,15.76
2022-09-01T07:13:23.952Z,16.57
2022-09-01T07:18:27.417Z,17.00
2022-09-01T07:23:46.193Z,17.64
2022-09-01T07:29:01.088Z,18.18
2022-09-01T07:45:28.471Z,21.03
2022-09-01T07:50:40.992Z,22.11
2022-09-01T07:56:07.428Z,22.92
2022-09-01T08:01:18.859Z,24.38
2022-09-01T08:06:27.226Z,25.52
2022-09-01T08:16:54.043Z,27.31
2022-09-01T08:21:58.108Z,27.46
2022-09-01T08:27:11.994Z,27.79
2022-09-01T08:32:14.599Z,28.83
2022-09-01T08:37:17.006Z,29.40
2022-09-01T08:42:25.302Z,31.07
2022-09-01T08:47:49.192Z,32.91
2022-09-01T08:53:09.775Z,34.83
2022-09-01T08:58:17.975Z,38.56
2022-09-01T09:04:21.889Z,36.47
2022-09-01T09:09:35.063Z,34.17
2022-09-01T09:15:15.620Z,32.50
2022-09-01T09:20:18.301Z,33.14
2022-09-01T09:25:24.366Z,33.93
2022-09-01T09:30:29.989Z,34.62
2022-09-01T09:35:34.207Z,35.47
2022-09-01T09:40:53.209Z,35.87
2022-09-01T09:46:26.475Z,35.77
2022-09-01T09:51:29.469Z,35.94
2022-09-01T09:56:33.118Z,36.80
2022-09-01T10:01:35.625Z,37.38
2022-09-01T10:06:39.302Z,37.10
2022-09-01T10:11:44.990Z,35.75
2022-09-01T10:16:56.772Z,38.36
2022-09-01T10:22:00.170Z,39.48
2022-09-01T10:27:13.931Z,30.90
2022-09-01T10:32:35.126Z,36.23
2022-09-01T10:37:41.441Z,41.11
2022-09-01T10:42:47.418Z,43.25
2022-09-01T10:47:49.827Z,31.62
2022-09-01T10:52:53.960Z,28.24
2022-09-01T10:58:09.312Z,27.90
2022-09-01T11:08:33.836Z,27.57
2022-09-01T11:13:49.037Z,27.13
2022-09-01T11:18:52.585Z,40.58
2022-09-01T11:24:32.156Z,44.44
2022-09-01T11:30:02.525Z,42.82
2022-09-01T11:35:18.310Z,36.09
2022-09-01T11:40:32.316Z,31.55
2022-09-01T11:45:44.954Z,29.59
2022-09-01T11:50:59.132Z,28.45
2022-09-01T11:56:27.130Z,28.13
2022-09-01T12:01:35.133Z,32.63
2022-09-01T12:06:37.490Z,34.56
2022-09-01T12:11:41.790Z,35.78
2022-09-01T12:16:44.517Z,34.40
2022-09-01T12:21:59.142Z,37.25
2022-09-01T12:27:02.264Z,41.12
2022-09-01T12:32:05.366Z,39.55
2022-09-01T12:37:12.157Z,37.43
2022-09-01T12:42:20.663Z,34.03
2022-09-01T12:47:37.784Z,31.49
2022-09-01T12:52:52.427Z,31.26
2022-09-01T12:57:59.001Z,31.05
2022-09-01T13:03:08.366Z,31.74
2022-09-01T13:08:14.199Z,31.30
2022-09-01T13:13:17.633Z,30.71
2022-09-01T13:18:22.803Z,30.09
2022-09-01T13:23:25.444Z,29.16
2022-09-01T13:28:27.797Z,28.49
2022-09-01T13:33:31.356Z,27.54
2022-09-01T13:38:53.883Z,26.89
2022-09-01T13:43:58.030Z,26.36
2022-09-01T13:49:04.490Z,26.27
2022-09-01T13:54:22.755Z,27.73
2022-09-01T13:59:25.040Z,29.05
2022-09-01T14:04:27.401Z,27.47
2022-09-01T14:09:29.709Z,27.64
2022-09-01T14:19:57.520Z,28.56
2022-09-01T14:25:00.422Z,28.50
2022-09-01T14:30:03.887Z,28.34
2022-09-01T14:35:08.187Z,28.29
2022-09-01T14:40:16.859Z,26.98
2022-09-01T14:45:22.044Z,26.18
2022-09-01T14:50:25.422Z,26.30
2022-09-01T14:55:29.670Z,26.19
2022-09-01T15:00:35.160Z,25.77
2022-09-01T15:05:40.099Z,25.47
2022-09-01T15:10:42.688Z,25.00
2022-09-01T15:15:45.004Z,24.78
2022-09-01T15:20:47.386Z,24.77
2022-09-01T15:25:52.502Z,24.79
2022-09-01T15:30:56.986Z,24.35
2022-09-01T15:35:59.255Z,24.00
2022-09-01T15:41:04.709Z,24.02
2022-09-01T15:46:07.024Z,23.98
2022-09-01T15:51:24.406Z,23.95
2022-09-01T15:56:27.474Z,23.87
2022-09-01T16:01:32.135Z,23.64
2022-09-01T16:06:34.900Z,23.16
2022-09-01T16:11:38.914Z,22.81
2022-09-01T16:17:12.626Z,22.67
2022-09-01T16:22:20.795Z,22.55
2022-09-01T16:27:32.051Z,22.59
2022-09-01T16:32:35.659Z,22.48
2022-09-01T16:38:12.748Z,22.33
2022-09-01T16:43:40.844Z,22.06
2022-09-01T16:49:06.392Z,21.60
2022-09-01T16:54:20.722Z,21.50
2022-09-01T16:59:41.026Z,21.44
2022-09-01T17:04:48.875Z,21.15
2022-09-01T17:10:22.290Z,20.94
2022-09-01T17:15:40.716Z,20.66
2022-09-01T17:20:58.030Z,20.41
2022-09-01T17:26:13.433Z,20.29
2022-09-01T17:31:32.028Z,20.06
2022-09-01T17:36:56.964Z,19.88
2022-09-01T17:42:07.358Z,19.66
2022-09-01T17:47:25.024Z,19.51
2022-09-01T17:52:29.913Z,19.35
2022-09-01T17:57:34.916Z,19.22
2022-09-01T18:02:58.525Z,18.95
2022-09-01T18:08:15.860Z,18.82
2022-09-01T18:13:56.488Z,18.67
2022-09-01T18:19:05.582Z,18.43
2022-09-01T18:24:22.437Z,18.22
2022-09-01T18:29:29.607Z,18.04
2022-09-01T18:35:01.639Z,17.88
2022-09-01T18:40:29.984Z,17.69
2022-09-01T18:45:54.277Z,17.42
2022-09-01T18:51:06.271Z,17.20
2022-09-01T18:56:37.798Z,17.03
2022-09-01T19:01:56.758Z,17.05
2022-09-01T19:07:14.679Z,16.85
2022-09-01T19:12:31.522Z,16.82
2022-09-01T19:17:46.097Z,16.65
2022-09-01T19:23:06.631Z,16.38
2022-09-01T19:28:15.886Z,16.21
2022-09-01T19:33:26.345Z,16.07
2022-09-01T19:38:31.274Z,16.04
2022-09-01T19:43:37.271Z,16.09
2022-09-01T19:48:48.570Z,15.84
2022-09-01T19:54:16.165Z,15.60
2022-09-01T19:59:47.801Z,15.50
2022-09-01T20:04:57.084Z,15.28
2022-09-01T20:10:25.529Z,15.23
2022-09-01T20:15:39.474Z,15.02
2022-09-01T20:20:47.438Z,14.89
2022-09-01T20:25:55.256Z,14.73
2022-09-01T20:31:04.683Z,14.63
2022-09-01T20:36:15.765Z,14.69
2022-09-01T20:41:28.866Z,14.64
2022-09-01T20:46:32.511Z,14.69
2022-09-01T20:51:43.939Z,14.66
2022-09-01T20:57:02.635Z,14.48
2022-09-01T21:02:28.173Z,14.26
2022-09-01T21:07:52.310Z,14.18
2022-09-01T21:13:01.644Z,14.25
2022-09-01T21:18:09.889Z,14.16
2022-09-01T21:23:14.763Z,14.00
2022-09-01T21:28:20.615Z,13.97
